sensor_id;sensor_type;location;lat;lon;timestamp;P1;durP1;ratioP1;P2;durP2;ratioP2
19038;SDS011;9652;49.014;12.052;2023-03-24T00:00:32;3.53;;;2.80;;
19038;SDS011;9652;49.014;12.052;2023-03-24T00:03:00;6.03;;;2.90;;
19038;SDS011;9652;49.014;12.052;2023-03-24T00:05:27;3.97;;;3.00;;
19038;SDS011;9652;49.014;12.052;2023-03-24T00:07:54;3.13;;;2.87;;
19038;SDS011;9652;49.014;12.052;2023-03-24T00:10:24;3.00;;;2.70;;
19038;SDS011;9652;49.014;12.052;2023-03-24T00:12:54;5.20;;;3.30;;
19038;SDS011;9652;49.014;12.052;2023-03-24T00:15:24;3.33;;;3.00;;
19038;SDS011;9652;49.014;12.052;2023-03-24T00:17:52;7.63;;;3.43;;
19038;SDS011;9652;49.014;12.052;2023-03-24T00:20:22;3.53;;;2.73;;
19038;SDS011;9652;49.014;12.052;2023-03-24T00:22:51;5.60;;;3.13;;
19038;SDS011;9652;49.014;12.052;2023-03-24T00:25:23;3.60;;;3.10;;
19038;SDS011;9652;49.014;12.052;2023-03-24T00:27:53;5.27;;;2.83;;
19038;SDS011;9652;49.014;12.052;2023-03-24T00:30:23;5.07;;;3.13;;
19038;SDS011;9652;49.014;12.052;2023-03-24T00:32:52;3.37;;;2.80;;
19038;SDS011;9652;49.014;12.052;2023-03-24T00:35:20;6.27;;;3.47;;
19038;SDS011;9652;49.014;12.052;2023-03-24T00:37:48;6.67;;;3.20;;
19038;SDS011;9652;49.014;12.052;2023-03-24T00:40:16;3.73;;;3.10;;
19038;SDS011;9652;49.014;12.052;2023-03-24T00:42:46;4.30;;;2.97;;
19038;SDS011;9652;49.014;12.052;2023-03-24T00:45:16;5.40;;;3.00;;
19038;SDS011;9652;49.014;12.052;2023-03-24T00:47:48;6.60;;;3.27;;
19038;SDS011;9652;49.014;12.052;2023-03-24T00:50:18;3.03;;;2.70;;
19038;SDS011;9652;49.014;12.052;2023-03-24T00:52:50;2.70;;;2.13;;
19038;SDS011;9652;49.014;12.052;2023-03-24T00:55:18;3.63;;;2.90;;
19038;SDS011;9652;49.014;12.052;2023-03-24T00:57:46;6.50;;;2.90;;
19038;SDS011;9652;49.014;12.052;2023-03-24T01:00:15;5.33;;;2.73;;
19038;SDS011;9652;49.014;12.052;2023-03-24T01:02:45;2.90;;;2.67;;
19038;SDS011;9652;49.014;12.052;2023-03-24T01:05:17;3.20;;;2.90;;
19038;SDS011;9652;49.014;12.052;2023-03-24T01:07:45;3.23;;;2.93;;
19038;SDS011;9652;49.014;12.052;2023-03-24T01:10:17;3.33;;;2.97;;
19038;SDS011;9652;49.014;12.052;2023-03-24T01:12:50;4.27;;;2.47;;
19038;SDS011;9652;49.014;12.052;2023-03-24T01:15:19;2.87;;;2.50;;
19038;SDS011;9652;49.014;12.052;2023-03-24T01:17:51;2.57;;;2.37;;
19038;SDS011;9652;49.014;12.052;2023-03-24T01:20:19;3.50;;;2.50;;
19038;SDS011;9652;49.014;12.052;2023-03-24T01:22:47;3.63;;;2.67;;
19038;SDS011;9652;49.014;12.052;2023-03-24T01:25:16;3.03;;;2.73;;
19038;SDS011;9652;49.014;12.052;2023-03-24T01:27:46;3.27;;;2.90;;
19038;SDS011;9652;49.014;12.052;2023-03-24T01:30:16;2.70;;;2.50;;
19038;SDS011;9652;49.014;12.052;2023-03-24T01:32:47;2.80;;;2.30;;
19038;SDS011;9652;49.014;12.052;2023-03-24T01:35:17;2.80;;;2.60;;
19038;SDS011;9652;49.014;12.052;2023-03-24T01:37:44;5.97;;;2.57;;
19038;SDS011;9652;49.014;12.052;2023-03-24T01:40:15;3.17;;;2.70;;
19038;SDS011;9652;49.014;12.052;2023-03-24T01:42:46;2.60;;;2.40;;
19038;SDS011;9652;49.014;12.052;2023-03-24T01:48:26;4.07;;;2.73;;
19038;SDS011;9652;49.014;12.052;2023-03-24T01:51:01;3.00;;;2.70;;
19038;SDS011;9652;49.014;12.052;2023-03-24T01:53:35;3.43;;;2.50;;
19038;SDS011;9652;49.014;12.052;2023-03-24T01:56:07;3.37;;;2.60;;
19038;SDS011;9652;49.014;12.052;2023-03-24T01:58:42;2.80;;;2.50;;
19038;SDS011;9652;49.014;12.052;2023-03-24T02:01:21;2.40;;;2.20;;
19038;SDS011;9652;49.014;12.052;2023-03-24T02:04:18;2.77;;;2.57;;
19038;SDS011;9652;49.014;12.052;2023-03-24T02:06:47;5.30;;;3.23;;
19038;SDS011;9652;49.014;12.052;2023-03-24T02:09:15;3.27;;;2.97;;
19038;SDS011;9652;49.014;12.052;2023-03-24T02:11:42;3.37;;;2.43;;
19038;SDS011;9652;49.014;12.052;2023-03-24T02:14:11;3.07;;;2.80;;
19038;SDS011;9652;49.014;12.052;2023-03-24T02:16:55;3.87;;;3.10;;
19038;SDS011;9652;49.014;12.052;2023-03-24T02:19:52;3.27;;;2.83;;
19038;SDS011;9652;49.014;12.052;2023-03-24T02:23:02;3.00;;;2.60;;
19038;SDS011;9652;49.014;12.052;2023-03-24T02:26:26;3.07;;;2.70;;
19038;SDS011;9652;49.014;12.052;2023-03-24T02:29:28;3.70;;;2.93;;
19038;SDS011;9652;49.014;12.052;2023-03-24T02:35:22;3.87;;;2.90;;
19038;SDS011;9652;49.014;12.052;2023-03-24T02:38:38;3.20;;;2.80;;
19038;SDS011;9652;49.014;12.052;2023-03-24T02:41:45;3.13;;;2.60;;
19038;SDS011;9652;49.014;12.052;2023-03-24T02:44:19;4.43;;;3.23;;
19038;SDS011;9652;49.014;12.052;2023-03-24T02:46:59;3.37;;;3.00;;
19038;SDS011;9652;49.014;12.052;2023-03-24T02:49:37;3.70;;;3.10;;
19038;SDS011;9652;49.014;12.052;2023-03-24T02:52:15;6.90;;;3.03;;
19038;SDS011;9652;49.014;12.052;2023-03-24T02:54:53;3.63;;;2.93;;
19038;SDS011;9652;49.014;12.052;2023-03-24T02:57:30;3.60;;;3.30;;
19038;SDS011;9652;49.014;12.052;2023-03-24T03:00:07;3.80;;;3.27;;
19038;SDS011;9652;49.014;12.052;2023-03-24T03:03:02;2.83;;;2.60;;
19038;SDS011;9652;49.014;12.052;2023-03-24T03:05:35;5.57;;;2.83;;
19038;SDS011;9652;49.014;12.052;2023-03-24T03:08:11;3.03;;;2.70;;
19038;SDS011;9652;49.014;12.052;2023-03-24T03:10:44;4.00;;;3.00;;
19038;SDS011;9652;49.014;12.052;2023-03-24T03:13:16;3.57;;;3.27;;
19038;SDS011;9652;49.014;12.052;2023-03-24T03:15:50;3.30;;;3.00;;
19038;SDS011;9652;49.014;12.052;2023-03-24T03:18:22;3.93;;;3.20;;
19038;SDS011;9652;49.014;12.052;2023-03-24T03:20:56;3.40;;;2.57;;
19038;SDS011;9652;49.014;12.052;2023-03-24T03:23:33;3.50;;;3.03;;
19038;SDS011;9652;49.014;12.052;2023-03-24T03:26:06;3.53;;;2.87;;
19038;SDS011;9652;49.014;12.052;2023-03-24T03:28:42;3.80;;;3.50;;
19038;SDS011;9652;49.014;12.052;2023-03-24T03:31:23;3.70;;;3.27;;
19038;SDS011;9652;49.014;12.052;2023-03-24T03:33:58;4.77;;;3.77;;
19038;SDS011;9652;49.014;12.052;2023-03-24T03:36:37;3.47;;;3.17;;
19038;SDS011;9652;49.014;12.052;2023-03-24T03:39:13;4.10;;;3.67;;
19038;SDS011;9652;49.014;12.052;2023-03-24T03:41:50;4.50;;;3.73;;
19038;SDS011;9652;49.014;12.052;2023-03-24T03:44:18;5.00;;;3.50;;
19038;SDS011;9652;49.014;12.052;2023-03-24T03:46:45;4.00;;;3.60;;
19038;SDS011;9652;49.014;12.052;2023-03-24T03:49:19;4.83;;;3.77;;
19038;SDS011;9652;49.014;12.052;2023-03-24T03:51:47;4.27;;;3.67;;
19038;SDS011;9652;49.014;12.052;2023-03-24T03:54:15;5.37;;;3.13;;
19038;SDS011;9652;49.014;12.052;2023-03-24T03:56:45;3.77;;;3.07;;
19038;SDS011;9652;49.014;12.052;2023-03-24T03:59:26;6.70;;;3.67;;
19038;SDS011;9652;49.014;12.052;2023-03-24T04:01:59;3.93;;;3.53;;
19038;SDS011;9652;49.014;12.052;2023-03-24T04:04:47;4.30;;;3.90;;
19038;SDS011;9652;49.014;12.052;2023-03-24T04:08:07;3.43;;;2.97;;
19038;SDS011;9652;49.014;12.052;2023-03-24T04:11:01;3.77;;;3.37;;
19038;SDS011;9652;49.014;12.052;2023-03-24T04:17:49;3.53;;;3.17;;
19038;SDS011;9652;49.014;12.052;2023-03-24T04:20:52;3.70;;;3.23;;
19038;SDS011;9652;49.014;12.052;2023-03-24T04:23:41;3.20;;;2.87;;
19038;SDS011;9652;49.014;12.052;2023-03-24T04:26:24;3.70;;;3.27;;
19038;SDS011;9652;49.014;12.052;2023-03-24T04:29:03;4.40;;;3.47;;
19038;SDS011;9652;49.014;12.052;2023-03-24T04:31:38;4.03;;;3.23;;
19038;SDS011;9652;49.014;12.052;2023-03-24T04:34:15;4.50;;;3.43;;
19038;SDS011;9652;49.014;12.052;2023-03-24T04:36:51;4.10;;;3.47;;
19038;SDS011;9652;49.014;12.052;2023-03-24T04:39:53;4.07;;;3.40;;
19038;SDS011;9652;49.014;12.052;2023-03-24T04:42:25;6.80;;;3.20;;
19038;SDS011;9652;49.014;12.052;2023-03-24T04:44:57;4.90;;;3.80;;
19038;SDS011;9652;49.014;12.052;2023-03-24T04:47:49;5.57;;;3.80;;
19038;SDS011;9652;49.014;12.052;2023-03-24T04:50:39;5.03;;;3.60;;
19038;SDS011;9652;49.014;12.052;2023-03-24T04:53:15;4.67;;;3.53;;
19038;SDS011;9652;49.014;12.052;2023-03-24T04:55:56;5.27;;;3.87;;
19038;SDS011;9652;49.014;12.052;2023-03-24T04:58:57;3.53;;;3.23;;
19038;SDS011;9652;49.014;12.052;2023-03-24T05:01:25;5.07;;;3.87;;
19038;SDS011;9652;49.014;12.052;2023-03-24T05:04:25;3.70;;;3.13;;
19038;SDS011;9652;49.014;12.052;2023-03-24T05:06:56;4.20;;;3.80;;
19038;SDS011;9652;49.014;12.052;2023-03-24T05:09:25;4.93;;;3.50;;
19038;SDS011;9652;49.014;12.052;2023-03-24T05:11:56;4.10;;;3.30;;
19038;SDS011;9652;49.014;12.052;2023-03-24T05:14:24;3.87;;;3.17;;
19038;SDS011;9652;49.014;12.052;2023-03-24T05:16:51;4.30;;;3.90;;
19038;SDS011;9652;49.014;12.052;2023-03-24T05:19:20;4.53;;;3.70;;
19038;SDS011;9652;49.014;12.052;2023-03-24T05:21:50;4.40;;;3.50;;
19038;SDS011;9652;49.014;12.052;2023-03-24T05:24:19;6.13;;;3.60;;
19038;SDS011;9652;49.014;12.052;2023-03-24T05:26:46;4.13;;;3.40;;
19038;SDS011;9652;49.014;12.052;2023-03-24T05:29:16;6.23;;;3.60;;
19038;SDS011;9652;49.014;12.052;2023-03-24T05:31:44;5.70;;;4.20;;
19038;SDS011;9652;49.014;12.052;2023-03-24T05:34:21;6.50;;;3.80;;
19038;SDS011;9652;49.014;12.052;2023-03-24T05:37:06;5.17;;;3.90;;
19038;SDS011;9652;49.014;12.052;2023-03-24T05:39:36;6.70;;;3.63;;
19038;SDS011;9652;49.014;12.052;2023-03-24T05:42:25;3.57;;;3.20;;
19038;SDS011;9652;49.014;12.052;2023-03-24T05:44:52;4.10;;;3.50;;
19038;SDS011;9652;49.014;12.052;2023-03-24T05:47:25;4.50;;;3.30;;
19038;SDS011;9652;49.014;12.052;2023-03-24T05:49:53;5.37;;;3.53;;
19038;SDS011;9652;49.014;12.052;2023-03-24T05:52:22;6.13;;;3.83;;
19038;SDS011;9652;49.014;12.052;2023-03-24T05:54:56;5.80;;;3.83;;
19038;SDS011;9652;49.014;12.052;2023-03-24T05:57:25;4.13;;;3.73;;
19038;SDS011;9652;49.014;12.052;2023-03-24T06:00:23;5.00;;;3.33;;
19038;SDS011;9652;49.014;12.052;2023-03-24T06:03:00;5.83;;;3.47;;
19038;SDS011;9652;49.014;12.052;2023-03-24T06:05:37;4.67;;;3.47;;
19038;SDS011;9652;49.014;12.052;2023-03-24T06:08:06;3.83;;;3.13;;
19038;SDS011;9652;49.014;12.052;2023-03-24T06:10:35;4.47;;;3.57;;
19038;SDS011;9652;49.014;12.052;2023-03-24T06:13:02;3.77;;;3.43;;
19038;SDS011;9652;49.014;12.052;2023-03-24T06:15:33;4.67;;;3.57;;
19038;SDS011;9652;49.014;12.052;2023-03-24T06:18:26;4.43;;;3.57;;
19038;SDS011;9652;49.014;12.052;2023-03-24T06:20:57;4.10;;;3.70;;
19038;SDS011;9652;49.014;12.052;2023-03-24T06:23:29;5.27;;;3.50;;
19038;SDS011;9652;49.014;12.052;2023-03-24T06:26:09;5.33;;;3.57;;
19038;SDS011;9652;49.014;12.052;2023-03-24T06:28:50;6.13;;;3.40;;
19038;SDS011;9652;49.014;12.052;2023-03-24T06:31:20;7.27;;;3.70;;
19038;SDS011;9652;49.014;12.052;2023-03-24T06:33:50;4.10;;;3.33;;
19038;SDS011;9652;49.014;12.052;2023-03-24T06:36:18;4.43;;;3.70;;
19038;SDS011;9652;49.014;12.052;2023-03-24T06:38:48;4.70;;;3.73;;
19038;SDS011;9652;49.014;12.052;2023-03-24T06:41:18;4.87;;;4.03;;
19038;SDS011;9652;49.014;12.052;2023-03-24T06:43:48;4.50;;;3.67;;
19038;SDS011;9652;49.014;12.052;2023-03-24T06:46:15;5.17;;;3.93;;
19038;SDS011;9652;49.014;12.052;2023-03-24T06:48:44;4.33;;;3.77;;
19038;SDS011;9652;49.014;12.052;2023-03-24T06:51:13;4.63;;;3.97;;
19038;SDS011;9652;49.014;12.052;2023-03-24T06:53:40;4.73;;;3.77;;
19038;SDS011;9652;49.014;12.052;2023-03-24T06:56:11;5.10;;;4.00;;
19038;SDS011;9652;49.014;12.052;2023-03-24T06:58:44;4.13;;;3.73;;
19038;SDS011;9652;49.014;12.052;2023-03-24T07:01:16;6.50;;;3.80;;
19038;SDS011;9652;49.014;12.052;2023-03-24T07:04:04;4.07;;;3.60;;
19038;SDS011;9652;49.014;12.052;2023-03-24T07:06:50;4.30;;;3.47;;
19038;SDS011;9652;49.014;12.052;2023-03-24T07:09:19;4.23;;;3.30;;
19038;SDS011;9652;49.014;12.052;2023-03-24T07:11:47;4.53;;;3.87;;
19038;SDS011;9652;49.014;12.052;2023-03-24T07:14:15;4.37;;;3.80;;
19038;SDS011;9652;49.014;12.052;2023-03-24T07:16:43;4.77;;;3.80;;
19038;SDS011;9652;49.014;12.052;2023-03-24T07:19:48;5.50;;;3.50;;
19038;SDS011;9652;49.014;12.052;2023-03-24T07:22:48;3.97;;;3.40;;
19038;SDS011;9652;49.014;12.052;2023-03-24T07:25:35;4.80;;;3.90;;
19038;SDS011;9652;49.014;12.052;2023-03-24T07:28:18;5.20;;;3.80;;
19038;SDS011;9652;49.014;12.052;2023-03-24T07:30:46;4.97;;;3.70;;
19038;SDS011;9652;49.014;12.052;2023-03-24T07:33:13;4.10;;;3.40;;
19038;SDS011;9652;49.014;12.052;2023-03-24T07:35:43;4.17;;;3.37;;
19038;SDS011;9652;49.014;12.052;2023-03-24T07:38:10;4.97;;;3.87;;
19038;SDS011;9652;49.014;12.052;2023-03-24T07:40:38;6.23;;;3.60;;
19038;SDS011;9652;49.014;12.052;2023-03-24T07:43:05;4.30;;;3.47;;
19038;SDS011;9652;49.014;12.052;2023-03-24T07:45:54;4.00;;;3.60;;
19038;SDS011;9652;49.014;12.052;2023-03-24T07:48:23;4.77;;;3.83;;
19038;SDS011;9652;49.014;12.052;2023-03-24T07:50:51;5.33;;;3.93;;
19038;SDS011;9652;49.014;12.052;2023-03-24T07:53:37;4.57;;;3.47;;
19038;SDS011;9652;49.014;12.052;2023-03-24T07:56:05;4.27;;;3.37;;
19038;SDS011;9652;49.014;12.052;2023-03-24T07:58:37;4.57;;;3.80;;
19038;SDS011;9652;49.014;12.052;2023-03-24T08:01:31;5.43;;;3.90;;
19038;SDS011;9652;49.014;12.052;2023-03-24T08:04:02;4.77;;;3.67;;
19038;SDS011;9652;49.014;12.052;2023-03-24T08:06:59;4.10;;;3.57;;
19038;SDS011;9652;49.014;12.052;2023-03-24T08:09:27;4.57;;;3.50;;
19038;SDS011;9652;49.014;12.052;2023-03-24T08:11:54;5.13;;;3.37;;
19038;SDS011;9652;49.014;12.052;2023-03-24T08:14:22;4.17;;;3.73;;
19038;SDS011;9652;49.014;12.052;2023-03-24T08:16:50;4.90;;;3.80;;
19038;SDS011;9652;49.014;12.052;2023-03-24T08:19:17;3.57;;;3.23;;
19038;SDS011;9652;49.014;12.052;2023-03-24T08:21:44;3.90;;;3.37;;
19038;SDS011;9652;49.014;12.052;2023-03-24T08:24:11;6.83;;;5.27;;
19038;SDS011;9652;49.014;12.052;2023-03-24T08:26:38;6.27;;;4.33;;
19038;SDS011;9652;49.014;12.052;2023-03-24T08:29:06;6.73;;;3.87;;
19038;SDS011;9652;49.014;12.052;2023-03-24T08:31:34;6.03;;;4.20;;
19038;SDS011;9652;49.014;12.052;2023-03-24T08:34:04;5.40;;;4.07;;
19038;SDS011;9652;49.014;12.052;2023-03-24T08:36:31;4.90;;;3.80;;
19038;SDS011;9652;49.014;12.052;2023-03-24T08:38:58;4.73;;;4.10;;
19038;SDS011;9652;49.014;12.052;2023-03-24T08:41:26;4.67;;;4.17;;
19038;SDS011;9652;49.014;12.052;2023-03-24T08:43:58;5.23;;;4.67;;
19038;SDS011;9652;49.014;12.052;2023-03-24T08:46:27;4.13;;;3.47;;
19038;SDS011;9652;49.014;12.052;2023-03-24T08:48:55;5.03;;;3.80;;
19038;SDS011;9652;49.014;12.052;2023-03-24T08:51:24;4.73;;;4.20;;
19038;SDS011;9652;49.014;12.052;2023-03-24T08:53:52;5.27;;;4.53;;
19038;SDS011;9652;49.014;12.052;2023-03-24T08:56:19;4.00;;;3.60;;
19038;SDS011;9652;49.014;12.052;2023-03-24T08:58:47;4.03;;;3.50;;
19038;SDS011;9652;49.014;12.052;2023-03-24T09:01:17;4.00;;;3.60;;
19038;SDS011;9652;49.014;12.052;2023-03-24T09:03:45;5.10;;;4.17;;
19038;SDS011;9652;49.014;12.052;2023-03-24T09:06:12;4.67;;;4.17;;
19038;SDS011;9652;49.014;12.052;2023-03-24T09:08:42;5.33;;;3.90;;
19038;SDS011;9652;49.014;12.052;2023-03-24T09:11:13;5.53;;;4.23;;
19038;SDS011;9652;49.014;12.052;2023-03-24T09:13:42;5.23;;;3.90;;
19038;SDS011;9652;49.014;12.052;2023-03-24T09:16:10;3.73;;;3.43;;
19038;SDS011;9652;49.014;12.052;2023-03-24T09:18:37;6.03;;;3.90;;
19038;SDS011;9652;49.014;12.052;2023-03-24T09:21:04;3.70;;;3.30;;
19038;SDS011;9652;49.014;12.052;2023-03-24T09:23:32;5.37;;;4.07;;
19038;SDS011;9652;49.014;12.052;2023-03-24T09:26:01;4.40;;;3.40;;
19038;SDS011;9652;49.014;12.052;2023-03-24T09:28:30;4.43;;;3.40;;
19038;SDS011;9652;49.014;12.052;2023-03-24T09:30:59;4.27;;;3.27;;
19038;SDS011;9652;49.014;12.052;2023-03-24T09:33:28;3.80;;;3.40;;
19038;SDS011;9652;49.014;12.052;2023-03-24T09:35:56;3.73;;;3.33;;
19038;SDS011;9652;49.014;12.052;2023-03-24T09:38:25;6.13;;;3.20;;
19038;SDS011;9652;49.014;12.052;2023-03-24T09:40:52;3.67;;;3.33;;
19038;SDS011;9652;49.014;12.052;2023-03-24T09:43:29;4.87;;;3.63;;
19038;SDS011;9652;49.014;12.052;2023-03-24T09:46:03;6.00;;;4.73;;
19038;SDS011;9652;49.014;12.052;2023-03-24T09:48:39;5.37;;;4.60;;
19038;SDS011;9652;49.014;12.052;2023-03-24T09:51:13;5.80;;;4.50;;
19038;SDS011;9652;49.014;12.052;2023-03-24T09:53:48;5.80;;;4.20;;
19038;SDS011;9652;49.014;12.052;2023-03-24T09:56:25;5.63;;;4.07;;
19038;SDS011;9652;49.014;12.052;2023-03-24T09:58:59;5.17;;;3.50;;
19038;SDS011;9652;49.014;12.052;2023-03-24T10:01:32;4.50;;;3.47;;
19038;SDS011;9652;49.014;12.052;2023-03-24T10:04:00;3.70;;;3.40;;
19038;SDS011;9652;49.014;12.052;2023-03-24T10:06:29;3.90;;;3.13;;
19038;SDS011;9652;49.014;12.052;2023-03-24T10:09:07;3.10;;;2.80;;
19038;SDS011;9652;49.014;12.052;2023-03-24T10:11:49;4.27;;;3.17;;
19038;SDS011;9652;49.014;12.052;2023-03-24T10:14:42;3.70;;;2.90;;
19038;SDS011;9652;49.014;12.052;2023-03-24T10:17:24;3.80;;;3.40;;
19038;SDS011;9652;49.014;12.052;2023-03-24T10:20:09;5.17;;;3.23;;
19038;SDS011;9652;49.014;12.052;2023-03-24T10:22:54;3.73;;;2.97;;
19038;SDS011;9652;49.014;12.052;2023-03-24T10:25:33;3.97;;;2.80;;
19038;SDS011;9652;49.014;12.052;2023-03-24T10:28:14;3.13;;;2.83;;
19038;SDS011;9652;49.014;12.052;2023-03-24T10:30:47;3.10;;;2.80;;
19038;SDS011;9652;49.014;12.052;2023-03-24T10:33:17;3.63;;;2.80;;
19038;SDS011;9652;49.014;12.052;2023-03-24T10:35:45;4.80;;;2.33;;
19038;SDS011;9652;49.014;12.052;2023-03-24T10:38:24;3.17;;;2.37;;
19038;SDS011;9652;49.014;12.052;2023-03-24T10:40:51;4.13;;;2.50;;
19038;SDS011;9652;49.014;12.052;2023-03-24T10:43:20;3.03;;;2.70;;
19038;SDS011;9652;49.014;12.052;2023-03-24T10:45:51;2.93;;;2.60;;
19038;SDS011;9652;49.014;12.052;2023-03-24T10:48:33;3.87;;;2.50;;
19038;SDS011;9652;49.014;12.052;2023-03-24T10:51:11;2.80;;;2.37;;
19038;SDS011;9652;49.014;12.052;2023-03-24T10:53:44;3.90;;;2.60;;
19038;SDS011;9652;49.014;12.052;2023-03-24T10:56:16;3.13;;;2.47;;
19038;SDS011;9652;49.014;12.052;2023-03-24T10:59:01;3.13;;;2.20;;
19038;SDS011;9652;49.014;12.052;2023-03-24T11:01:41;2.60;;;2.03;;
19038;SDS011;9652;49.014;12.052;2023-03-24T11:04:08;2.73;;;2.30;;
19038;SDS011;9652;49.014;12.052;2023-03-24T11:06:51;2.17;;;1.90;;
19038;SDS011;9652;49.014;12.052;2023-03-24T11:09:26;2.40;;;1.90;;
19038;SDS011;9652;49.014;12.052;2023-03-24T11:11:53;2.00;;;1.80;;
19038;SDS011;9652;49.014;12.052;2023-03-24T11:14:24;2.10;;;1.90;;
19038;SDS011;9652;49.014;12.052;2023-03-24T11:17:00;2.33;;;1.93;;
19038;SDS011;9652;49.014;12.052;2023-03-24T11:19:36;2.10;;;1.97;;
19038;SDS011;9652;49.014;12.052;2023-03-24T11:22:04;2.30;;;2.10;;
19038;SDS011;9652;49.014;12.052;2023-03-24T11:24:34;2.63;;;2.43;;
19038;SDS011;9652;49.014;12.052;2023-03-24T11:27:03;2.57;;;2.30;;
19038;SDS011;9652;49.014;12.052;2023-03-24T11:29:31;3.00;;;2.70;;
19038;SDS011;9652;49.014;12.052;2023-03-24T11:32:10;3.13;;;2.63;;
19038;SDS011;9652;49.014;12.052;2023-03-24T11:34:49;3.97;;;2.60;;
19038;SDS011;9652;49.014;12.052;2023-03-24T11:37:29;3.47;;;2.80;;
19038;SDS011;9652;49.014;12.052;2023-03-24T11:42:52;3.87;;;2.80;;
19038;SDS011;9652;49.014;12.052;2023-03-24T11:45:27;3.27;;;2.30;;
19038;SDS011;9652;49.014;12.052;2023-03-24T11:48:09;4.43;;;2.40;;
19038;SDS011;9652;49.014;12.052;2023-03-24T11:50:49;2.60;;;2.40;;
19038;SDS011;9652;49.014;12.052;2023-03-24T11:53:20;3.87;;;2.60;;
19038;SDS011;9652;49.014;12.052;2023-03-24T11:55:56;4.80;;;2.90;;
19038;SDS011;9652;49.014;12.052;2023-03-24T11:58:32;3.03;;;2.57;;
19038;SDS011;9652;49.014;12.052;2023-03-24T12:01:09;3.43;;;2.40;;
19038;SDS011;9652;49.014;12.052;2023-03-24T12:03:59;3.67;;;2.33;;
19038;SDS011;9652;49.014;12.052;2023-03-24T12:06:53;2.30;;;2.10;;
19038;SDS011;9652;49.014;12.052;2023-03-24T12:09:40;3.33;;;1.77;;
19038;SDS011;9652;49.014;12.052;2023-03-24T12:12:20;1.90;;;1.80;;
19038;SDS011;9652;49.014;12.052;2023-03-24T12:15:12;2.57;;;1.93;;
19038;SDS011;9652;49.014;12.052;2023-03-24T12:17:57;1.63;;;1.53;;
19038;SDS011;9652;49.014;12.052;2023-03-24T12:20:41;2.00;;;1.77;;
19038;SDS011;9652;49.014;12.052;2023-03-24T12:23:20;2.53;;;1.83;;
19038;SDS011;9652;49.014;12.052;2023-03-24T12:26:04;2.73;;;2.10;;
19038;SDS011;9652;49.014;12.052;2023-03-24T12:28:50;1.70;;;1.60;;
19038;SDS011;9652;49.014;12.052;2023-03-24T12:31:31;1.50;;;1.40;;
19038;SDS011;9652;49.014;12.052;2023-03-24T12:37:55;2.60;;;1.83;;
19038;SDS011;9652;49.014;12.052;2023-03-24T12:40:50;1.70;;;1.50;;
19038;SDS011;9652;49.014;12.052;2023-03-24T12:43:55;2.63;;;1.60;;
19038;SDS011;9652;49.014;12.052;2023-03-24T12:46:41;2.10;;;1.67;;
19038;SDS011;9652;49.014;12.052;2023-03-24T12:49:22;1.47;;;1.30;;
19038;SDS011;9652;49.014;12.052;2023-03-24T12:52:24;3.63;;;1.40;;
19038;SDS011;9652;49.014;12.052;2023-03-24T12:55:24;1.50;;;1.40;;
19038;SDS011;9652;49.014;12.052;2023-03-24T12:58:01;1.20;;;1.10;;
19038;SDS011;9652;49.014;12.052;2023-03-24T13:00:37;1.83;;;1.27;;
19038;SDS011;9652;49.014;12.052;2023-03-24T13:03:18;1.10;;;1.03;;
19038;SDS011;9652;49.014;12.052;2023-03-24T13:05:56;1.83;;;1.30;;
19038;SDS011;9652;49.014;12.052;2023-03-24T13:08:36;1.97;;;1.20;;
19038;SDS011;9652;49.014;12.052;2023-03-24T13:11:11;1.33;;;1.23;;
19038;SDS011;9652;49.014;12.052;2023-03-24T13:13:43;1.20;;;1.10;;
19038;SDS011;9652;49.014;12.052;2023-03-24T13:16:14;1.80;;;1.50;;
19038;SDS011;9652;49.014;12.052;2023-03-24T13:18:47;2.70;;;1.50;;
19038;SDS011;9652;49.014;12.052;2023-03-24T13:21:20;2.73;;;1.57;;
19038;SDS011;9652;49.014;12.052;2023-03-24T13:23:50;1.37;;;1.07;;
19038;SDS011;9652;49.014;12.052;2023-03-24T13:26:29;1.07;;;0.97;;
19038;SDS011;9652;49.014;12.052;2023-03-24T13:29:09;1.97;;;1.40;;
19038;SDS011;9652;49.014;12.052;2023-03-24T13:32:05;2.30;;;1.40;;
19038;SDS011;9652;49.014;12.052;2023-03-24T13:34:45;1.67;;;1.17;;
19038;SDS011;9652;49.014;12.052;2023-03-24T13:37:21;2.13;;;1.27;;
19038;SDS011;9652;49.014;12.052;2023-03-24T13:39:55;1.73;;;1.30;;
19038;SDS011;9652;49.014;12.052;2023-03-24T13:42:29;1.60;;;1.13;;
19038;SDS011;9652;49.014;12.052;2023-03-24T13:44:59;2.00;;;1.30;;
19038;SDS011;9652;49.014;12.052;2023-03-24T13:47:46;1.13;;;1.03;;
19038;SDS011;9652;49.014;12.052;2023-03-24T13:50:15;1.40;;;1.00;;
19038;SDS011;9652;49.014;12.052;2023-03-24T13:52:44;6.87;;;1.27;;
19038;SDS011;9652;49.014;12.052;2023-03-24T13:55:18;1.57;;;1.17;;
19038;SDS011;9652;49.014;12.052;2023-03-24T13:57:53;2.17;;;1.30;;
19038;SDS011;9652;49.014;12.052;2023-03-24T14:00:24;2.57;;;1.13;;
19038;SDS011;9652;49.014;12.052;2023-03-24T14:02:53;1.33;;;0.97;;
19038;SDS011;9652;49.014;12.052;2023-03-24T14:05:30;1.30;;;1.10;;
19038;SDS011;9652;49.014;12.052;2023-03-24T14:08:27;1.37;;;1.13;;
19038;SDS011;9652;49.014;12.052;2023-03-24T14:11:09;0.87;;;0.87;;
19038;SDS011;9652;49.014;12.052;2023-03-24T14:14:20;0.90;;;0.90;;
19038;SDS011;9652;49.014;12.052;2023-03-24T14:16:49;1.40;;;1.13;;
19038;SDS011;9652;49.014;12.052;2023-03-24T14:19:34;0.87;;;0.77;;
19038;SDS011;9652;49.014;12.052;2023-03-24T14:22:08;1.13;;;1.00;;
19038;SDS011;9652;49.014;12.052;2023-03-24T14:24:40;1.53;;;0.97;;
19038;SDS011;9652;49.014;12.052;2023-03-24T14:30:03;1.47;;;0.90;;
19038;SDS011;9652;49.014;12.052;2023-03-24T14:32:43;1.13;;;0.87;;
19038;SDS011;9652;49.014;12.052;2023-03-24T14:35:23;1.43;;;0.90;;
19038;SDS011;9652;49.014;12.052;2023-03-24T14:37:58;0.83;;;0.80;;
19038;SDS011;9652;49.014;12.052;2023-03-24T14:40:31;1.10;;;0.80;;
19038;SDS011;9652;49.014;12.052;2023-03-24T14:43:14;1.20;;;0.80;;
19038;SDS011;9652;49.014;12.052;2023-03-24T14:48:30;0.93;;;0.70;;
19038;SDS011;9652;49.014;12.052;2023-03-24T14:51:05;1.00;;;0.83;;
19038;SDS011;9652;49.014;12.052;2023-03-24T14:53:49;0.90;;;0.63;;
19038;SDS011;9652;49.014;12.052;2023-03-24T14:56:21;1.20;;;1.00;;
19038;SDS011;9652;49.014;12.052;2023-03-24T14:58:55;0.83;;;0.80;;
19038;SDS011;9652;49.014;12.052;2023-03-24T15:01:32;1.17;;;0.83;;
19038;SDS011;9652;49.014;12.052;2023-03-24T15:04:04;0.90;;;0.90;;
19038;SDS011;9652;49.014;12.052;2023-03-24T15:06:41;0.70;;;0.70;;
19038;SDS011;9652;49.014;12.052;2023-03-24T15:09:11;1.03;;;0.70;;
19038;SDS011;9652;49.014;12.052;2023-03-24T15:11:40;0.60;;;0.60;;
19038;SDS011;9652;49.014;12.052;2023-03-24T15:14:12;0.67;;;0.67;;
19038;SDS011;9652;49.014;12.052;2023-03-24T15:16:53;0.77;;;0.77;;
19038;SDS011;9652;49.014;12.052;2023-03-24T15:19:26;0.67;;;0.67;;
19038;SDS011;9652;49.014;12.052;2023-03-24T15:21:59;0.60;;;0.60;;
19038;SDS011;9652;49.014;12.052;2023-03-24T15:24:29;1.17;;;0.67;;
19038;SDS011;9652;49.014;12.052;2023-03-24T15:29:55;0.77;;;0.77;;
19038;SDS011;9652;49.014;12.052;2023-03-24T15:32:26;0.70;;;0.70;;
19038;SDS011;9652;49.014;12.052;2023-03-24T15:34:57;0.87;;;0.63;;
19038;SDS011;9652;49.014;12.052;2023-03-24T15:37:30;0.70;;;0.70;;
19038;SDS011;9652;49.014;12.052;2023-03-24T15:40:02;1.57;;;0.80;;
19038;SDS011;9652;49.014;12.052;2023-03-24T15:42:30;0.97;;;0.80;;
19038;SDS011;9652;49.014;12.052;2023-03-24T15:45:05;0.80;;;0.80;;
19038;SDS011;9652;49.014;12.052;2023-03-24T15:47:49;2.57;;;0.90;;
19038;SDS011;9652;49.014;12.052;2023-03-24T15:50:32;1.20;;;0.80;;
19038;SDS011;9652;49.014;12.052;2023-03-24T15:53:02;0.70;;;0.67;;
19038;SDS011;9652;49.014;12.052;2023-03-24T15:55:46;1.03;;;1.03;;
19038;SDS011;9652;49.014;12.052;2023-03-24T15:58:26;1.13;;;1.00;;
19038;SDS011;9652;49.014;12.052;2023-03-24T16:00:57;1.20;;;1.10;;
19038;SDS011;9652;49.014;12.052;2023-03-24T16:03:29;1.20;;;1.10;;